Time;durP1;ratioP1;P1;durP2;ratioP2;P2;SDS_P1;SDS_P2;PMS_P1;PMS_P2;Temp;Humidity;BMP_temperature;BMP_pressure;BME280_temperature;BME280_humidity;BME280_pressure;Samples;Min_cycle;Max_cycle;Signal;HPM_P1;HPM_P2
2023/07/16 00:00:11;;;;;;;5.38;2.47;;;20.40;99.90;;;;;;5033237;28;20048;-60
2023/07/16 00:02:37;;;;;;;4.53;2.30;;;20.30;99.90;;;;;;5034903;28;20034;-55
2023/07/16 00:05:03;;;;;;;4.82;2.50;;;20.30;99.90;;;;;;5047664;28;20029;-61
2023/07/16 00:07:29;;;;;;;8.55;2.92;;;20.30;99.90;;;;;;5032129;28;20033;-59
2023/07/16 00:09:55;;;;;;;5.13;2.70;;;20.30;99.90;;;;;;5037130;28;20048;-51
2023/07/16 00:12:20;;;;;;;4.53;2.50;;;20.30;99.90;;;;;;5040088;28;20536;-58
2023/07/16 00:14:48;;;;;;;6.53;2.78;;;20.30;99.90;;;;;;5027070;28;20037;-50
2023/07/16 00:17:13;;;;;;;4.10;2.47;;;20.20;99.90;;;;;;5033002;28;20084;-55
2023/07/16 00:19:39;;;;;;;5.15;2.53;;;20.10;99.90;;;;;;5037915;28;20053;-52
2023/07/16 00:22:04;;;;;;;5.60;2.90;;;20.10;99.90;;;;;;5033036;28;20036;-53
2023/07/16 00:24:30;;;;;;;7.95;2.80;;;20.00;99.90;;;;;;5034504;28;20041;-57
2023/07/16 00:26:56;;;;;;;5.90;2.45;;;20.00;99.90;;;;;;5031864;28;20033;-51
2023/07/16 00:29:22;;;;;;;9.05;2.40;;;20.10;99.90;;;;;;5032758;28;20384;-52
2023/07/16 00:31:48;;;;;;;6.80;2.83;;;19.90;99.90;;;;;;5037458;28;20041;-51
2023/07/16 00:34:13;;;;;;;4.15;2.30;;;19.90;99.90;;;;;;5036256;28;20028;-54
2023/07/16 00:36:39;;;;;;;6.28;2.15;;;19.70;99.90;;;;;;5036111;28;20056;-51
2023/07/16 00:39:05;;;;;;;4.80;2.35;;;19.80;99.90;;;;;;5032451;28;20045;-52
2023/07/16 00:41:31;;;;;;;8.40;2.88;;;19.90;99.90;;;;;;5036623;28;20088;-51
2023/07/16 00:43:56;;;;;;;4.45;2.17;;;19.90;99.90;;;;;;5033728;28;20401;-53
2023/07/16 00:46:23;;;;;;;5.70;2.40;;;20.00;99.90;;;;;;5032923;28;20109;-51
2023/07/16 00:48:49;;;;;;;6.55;2.83;;;19.80;99.90;;;;;;5036608;28;20048;-54
2023/07/16 00:51:14;;;;;;;4.72;2.47;;;20.00;99.90;;;;;;5031360;28;20094;-55
2023/07/16 00:53:42;;;;;;;6.25;2.67;;;19.70;99.90;;;;;;5034020;28;20084;-55
2023/07/16 00:56:09;;;;;;;4.65;2.65;;;19.50;99.90;;;;;;5038945;28;20083;-56
2023/07/16 00:58:34;;;;;;;4.32;2.42;;;19.40;99.90;;;;;;5040313;28;20120;-55
2023/07/16 01:01:00;;;;;;;5.05;2.47;;;19.50;99.90;;;;;;5032323;28;20686;-55
2023/07/16 01:03:26;;;;;;;5.72;2.70;;;19.30;99.90;;;;;;5031067;28;20034;-56
2023/07/16 01:06:02;;;;;;;5.50;2.35;;;19.00;99.90;;;;;;5033671;28;20021;-58
2023/07/16 01:08:49;;;;;;;6.38;2.30;;;18.90;99.90;;;;;;5030762;28;20501;-55
2023/07/16 01:11:15;;;;;;;4.70;2.20;;;18.80;99.90;;;;;;5033430;28;20048;-56
2023/07/16 01:13:42;;;;;;;8.45;2.50;;;19.00;99.90;;;;;;5029526;28;20083;-55
2023/07/16 01:16:19;;;;;;;5.45;2.45;;;18.90;99.90;;;;;;5033832;28;20099;-54
2023/07/16 01:18:45;;;;;;;4.63;2.38;;;19.10;99.90;;;;;;5028561;28;20032;-52
2023/07/16 01:21:10;;;;;;;5.97;2.40;;;19.20;99.90;;;;;;5032055;28;20045;-61
2023/07/16 01:23:56;;;;;;;7.68;2.40;;;19.20;99.90;;;;;;5027461;28;20176;-53
2023/07/16 01:26:36;;;;;;;4.70;2.10;;;19.30;99.90;;;;;;5029406;28;20119;-56
2023/07/16 01:29:17;;;;;;;4.72;2.40;;;19.30;99.90;;;;;;5034784;28;20116;-54
2023/07/16 01:31:44;;;;;;;6.03;2.58;;;19.30;99.90;;;;;;5034262;28;20034;-54
2023/07/16 01:34:11;;;;;;;6.10;2.70;;;19.30;99.90;;;;;;5031722;28;20044;-55
2023/07/16 01:36:38;;;;;;;6.35;3.10;;;19.20;99.90;;;;;;5029329;28;20088;-53
2023/07/16 01:39:05;;;;;;;5.80;2.58;;;19.10;99.90;;;;;;5032667;28;20370;-52
2023/07/16 01:41:30;;;;;;;6.55;2.85;;;19.20;99.90;;;;;;5032968;28;20036;-59
2023/07/16 01:43:56;;;;;;;10.35;3.00;;;19.30;99.90;;;;;;5035253;28;20045;-55
2023/07/16 01:46:21;;;;;;;5.45;2.58;;;19.20;99.90;;;;;;5034357;28;20096;-58
2023/07/16 01:48:47;;;;;;;6.82;2.55;;;19.20;99.90;;;;;;5029068;28;20111;-53
2023/07/16 01:51:16;;;;;;;9.85;2.70;;;19.20;99.90;;;;;;5034219;28;20057;-52
2023/07/16 01:53:41;;;;;;;6.93;2.85;;;19.30;99.90;;;;;;5027557;28;20543;-49
2023/07/16 01:56:07;;;;;;;4.65;2.60;;;19.20;99.90;;;;;;5028694;28;20038;-53
2023/07/16 01:58:32;;;;;;;4.57;2.53;;;19.20;99.90;;;;;;5034257;28;20032;-55
2023/07/16 02:00:58;;;;;;;5.13;2.92;;;19.00;99.90;;;;;;5036442;28;20037;-52
2023/07/16 02:03:24;;;;;;;4.72;2.50;;;18.80;99.90;;;;;;5036851;28;20026;-56
2023/07/16 02:05:50;;;;;;;6.60;2.40;;;18.50;99.90;;;;;;5036098;28;20322;-51
2023/07/16 02:08:17;;;;;;;5.78;2.47;;;18.40;99.90;;;;;;5038540;28;20028;-51
2023/07/16 02:10:42;;;;;;;5.93;2.47;;;18.50;99.90;;;;;;5040690;28;20737;-60
2023/07/16 02:13:08;;;;;;;4.82;2.20;;;18.60;99.90;;;;;;5042334;28;20112;-52
2023/07/16 02:15:33;;;;;;;6.15;2.45;;;18.50;99.90;;;;;;5036287;28;20033;-54
2023/07/16 02:17:59;;;;;;;9.48;2.92;;;18.50;99.90;;;;;;5035211;28;20069;-52
2023/07/16 02:20:24;;;;;;;6.60;2.28;;;18.60;99.90;;;;;;5031456;28;20044;-55
2023/07/16 02:22:50;;;;;;;5.07;2.42;;;18.50;99.90;;;;;;5033083;28;20025;-53
2023/07/16 02:25:16;;;;;;;4.80;2.22;;;18.30;99.90;;;;;;5037962;28;20025;-52
2023/07/16 02:27:41;;;;;;;3.55;2.08;;;18.20;99.90;;;;;;5040369;28;20037;-51
2023/07/16 02:30:07;;;;;;;3.92;2.17;;;18.10;99.90;;;;;;5033900;28;20109;-56
2023/07/16 02:32:33;;;;;;;6.68;2.50;;;18.00;99.90;;;;;;5036724;28;20484;-51
2023/07/16 02:34:59;;;;;;;6.20;2.28;;;18.20;99.90;;;;;;5035384;28;20918;-49
2023/07/16 02:37:25;;;;;;;7.25;2.53;;;18.30;99.90;;;;;;5033838;28;20035;-51
2023/07/16 02:39:51;;;;;;;6.22;2.08;;;18.20;99.90;;;;;;5034044;28;20079;-54
2023/07/16 02:42:16;;;;;;;6.70;2.10;;;18.20;99.90;;;;;;5032526;28;20029;-50
2023/07/16 02:44:44;;;;;;;5.47;2.15;;;18.10;99.90;;;;;;5031247;28;20021;-52
2023/07/16 02:47:13;;;;;;;5.50;2.25;;;18.00;99.90;;;;;;5038351;28;20542;-52
2023/07/16 02:49:39;;;;;;;6.72;2.20;;;18.10;99.90;;;;;;5039447;28;20116;-53
2023/07/16 02:52:05;;;;;;;5.43;2.50;;;17.90;99.90;;;;;;5031065;28;20021;-52
2023/07/16 02:54:31;;;;;;;4.82;2.20;;;17.70;99.90;;;;;;5033761;28;20037;-53
2023/07/16 02:56:57;;;;;;;13.00;2.40;;;17.70;99.90;;;;;;5029100;28;20091;-55
2023/07/16 02:59:23;;;;;;;8.63;2.50;;;17.80;99.90;;;;;;5038267;28;20036;-56
2023/07/16 03:01:49;;;;;;;6.20;2.30;;;17.70;99.90;;;;;;5031966;28;20049;-63
2023/07/16 03:04:15;;;;;;;6.20;2.63;;;17.60;99.90;;;;;;5034088;28;20096;-59
2023/07/16 03:06:40;;;;;;;7.90;2.60;;;17.80;99.90;;;;;;5035196;28;20032;-57
2023/07/16 03:09:06;;;;;;;7.65;2.58;;;17.70;99.90;;;;;;5032090;28;20033;-57
2023/07/16 03:11:32;;;;;;;5.25;2.33;;;17.60;99.90;;;;;;5037329;28;20080;-50
2023/07/16 03:13:57;;;;;;;8.32;2.42;;;17.70;99.90;;;;;;5038884;28;20029;-51
2023/07/16 03:16:23;;;;;;;7.43;2.40;;;17.70;99.90;;;;;;5034072;28;20119;-52
2023/07/16 03:18:49;;;;;;;10.63;2.72;;;17.80;99.90;;;;;;5040625;28;20034;-50
2023/07/16 03:21:14;;;;;;;6.55;2.20;;;17.70;99.90;;;;;;5027743;28;20049;-52
2023/07/16 03:23:40;;;;;;;6.68;2.50;;;17.70;99.90;;;;;;5030403;28;20065;-53
2023/07/16 03:26:06;;;;;;;10.68;2.90;;;17.80;99.90;;;;;;5033892;28;20034;-59
2023/07/16 03:28:31;;;;;;;6.55;2.25;;;17.80;99.90;;;;;;5031319;28;20397;-54
2023/07/16 03:30:57;;;;;;;6.50;2.78;;;17.80;99.90;;;;;;5029929;28;20053;-50
2023/07/16 03:33:22;;;;;;;7.88;2.83;;;17.90;99.90;;;;;;5039523;28;20037;-52
2023/07/16 03:35:49;;;;;;;8.25;2.70;;;17.90;99.90;;;;;;5035974;28;20037;-52
2023/07/16 03:38:15;;;;;;;7.45;2.90;;;18.00;99.90;;;;;;5037891;28;20382;-57
2023/07/16 03:40:46;;;;;;;9.00;2.60;;;17.90;99.90;;;;;;5036166;28;20034;-55
2023/07/16 03:43:11;;;;;;;9.18;2.70;;;17.90;99.90;;;;;;5043206;28;20034;-53
2023/07/16 03:45:37;;;;;;;10.82;3.08;;;17.80;99.90;;;;;;5035469;28;20594;-51
2023/07/16 03:48:03;;;;;;;9.85;2.88;;;17.90;99.90;;;;;;5038158;28;20047;-54
2023/07/16 03:50:28;;;;;;;8.65;3.10;;;17.90;99.90;;;;;;5037437;28;20033;-56
2023/07/16 03:52:54;;;;;;;10.55;3.05;;;17.80;99.90;;;;;;5034920;28;20439;-53
2023/07/16 03:55:20;;;;;;;6.88;2.22;;;17.90;99.90;;;;;;5030470;28;20033;-55
2023/07/16 03:57:45;;;;;;;9.05;2.63;;;17.80;99.90;;;;;;5034794;28;20111;-57
2023/07/16 04:00:11;;;;;;;7.15;2.70;;;17.60;99.90;;;;;;5037242;28;20036;-53
2023/07/16 04:02:36;;;;;;;9.30;2.70;;;17.50;99.90;;;;;;5039501;28;20059;-55
2023/07/16 04:05:03;;;;;;;8.68;2.80;;;17.50;99.90;;;;;;5030943;28;20037;-53
2023/07/16 04:07:28;;;;;;;6.88;2.80;;;17.60;99.90;;;;;;5039646;28;20025;-53
2023/07/16 04:09:54;;;;;;;7.00;3.20;;;17.60;99.90;;;;;;5039996;28;20029;-58
2023/07/16 04:12:20;;;;;;;10.77;3.25;;;17.60;99.90;;;;;;5036825;28;20025;-55
2023/07/16 04:14:47;;;;;;;12.35;3.25;;;17.70;99.90;;;;;;5037235;28;20661;-54
2023/07/16 04:17:12;;;;;;;9.77;3.28;;;17.70;99.90;;;;;;5038875;28;20045;-54
2023/07/16 04:19:38;;;;;;;10.98;3.20;;;17.70;99.90;;;;;;5035654;28;20025;-53
2023/07/16 04:22:04;;;;;;;6.85;3.33;;;17.80;99.90;;;;;;5038787;28;20129;-52
2023/07/16 04:24:30;;;;;;;10.45;3.03;;;17.50;99.90;;;;;;5032123;28;20033;-53
2023/07/16 04:26:56;;;;;;;9.65;3.38;;;17.50;99.90;;;;;;5033081;28;20112;-52
2023/07/16 04:29:22;;;;;;;10.57;3.28;;;17.50;99.90;;;;;;5030216;28;20033;-53
2023/07/16 04:31:47;;;;;;;8.80;3.30;;;17.60;99.90;;;;;;5034267;28;20113;-53
2023/07/16 04:34:13;;;;;;;7.72;3.15;;;17.60;99.90;;;;;;5037221;28;20132;-52
2023/07/16 04:36:39;;;;;;;5.88;3.00;;;17.40;99.90;;;;;;5033159;28;20966;-53
2023/07/16 04:39:04;;;;;;;8.02;3.00;;;17.70;99.90;;;;;;5035412;28;20041;-51
2023/07/16 04:41:30;;;;;;;7.43;2.90;;;17.40;99.90;;;;;;5034166;28;20043;-53
2023/07/16 04:43:56;;;;;;;6.93;3.13;;;17.60;99.90;;;;;;5033319;28;20052;-52
2023/07/16 04:46:22;;;;;;;8.70;3.50;;;17.70;99.90;;;;;;5033234;28;20144;-53
2023/07/16 04:48:47;;;;;;;10.75;3.03;;;17.70;99.90;;;;;;5034718;28;20156;-52
2023/07/16 04:51:13;;;;;;;13.68;3.78;;;17.80;99.90;;;;;;5022141;28;20033;-51
2023/07/16 04:53:39;;;;;;;6.55;3.10;;;17.80;99.90;;;;;;5049415;28;20492;-53
2023/07/16 04:56:10;;;;;;;8.35;3.00;;;17.80;99.90;;;;;;5033081;28;20619;-52
2023/07/16 04:58:35;;;;;;;10.98;3.08;;;17.90;99.90;;;;;;5027025;28;20033;-48
2023/07/16 05:01:01;;;;;;;10.52;3.53;;;17.90;99.90;;;;;;5035530;28;20099;-49
2023/07/16 05:03:26;;;;;;;10.35;3.47;;;17.90;99.90;;;;;;5033821;28;20404;-51
2023/07/16 05:05:52;;;;;;;9.00;3.35;;;18.00;99.90;;;;;;5028003;28;20026;-49
2023/07/16 05:08:17;;;;;;;11.45;3.70;;;18.10;99.90;;;;;;5026624;28;20038;-50
2023/07/16 05:10:43;;;;;;;7.10;2.97;;;18.10;99.90;;;;;;5032399;28;20052;-50
2023/07/16 05:13:09;;;;;;;12.02;2.97;;;18.10;99.90;;;;;;5031729;28;20041;-50
2023/07/16 05:15:34;;;;;;;7.95;2.80;;;18.10;99.90;;;;;;5033279;28;20803;-51
2023/07/16 05:18:00;;;;;;;8.18;2.78;;;18.20;99.90;;;;;;5029862;28;20064;-50
2023/07/16 05:20:25;;;;;;;8.40;3.22;;;18.30;99.90;;;;;;5027277;28;20033;-51
2023/07/16 05:22:51;;;;;;;10.48;3.22;;;18.30;99.90;;;;;;5028711;28;20030;-49
2023/07/16 05:25:16;;;;;;;10.23;3.00;;;18.20;99.90;;;;;;5029908;28;20030;-48
2023/07/16 05:27:42;;;;;;;8.23;3.50;;;18.30;99.90;;;;;;5033170;28;20037;-51
2023/07/16 05:30:08;;;;;;;7.38;2.92;;;18.40;99.90;;;;;;5029817;28;20553;-50
2023/07/16 05:32:34;;;;;;;12.85;3.45;;;18.40;99.90;;;;;;5029922;28;20041;-51
2023/07/16 05:35:00;;;;;;;9.68;3.47;;;18.60;99.90;;;;;;5035566;28;20036;-48
2023/07/16 05:37:26;;;;;;;6.85;3.05;;;18.60;99.90;;;;;;5037265;28;20025;-49
2023/07/16 05:39:52;;;;;;;9.68;3.38;;;18.50;99.90;;;;;;5031904;28;20033;-50
2023/07/16 05:42:17;;;;;;;8.75;3.38;;;18.60;99.90;;;;;;5030622;28;20425;-48
2023/07/16 05:44:44;;;;;;;7.97;3.70;;;18.70;99.90;;;;;;5039422;28;20422;-47
2023/07/16 05:47:10;;;;;;;11.85;3.92;;;18.80;99.90;;;;;;5031073;28;20033;-51
2023/07/16 05:49:36;;;;;;;12.50;4.10;;;19.00;99.90;;;;;;5041612;28;20411;-50
2023/07/16 05:52:01;;;;;;;10.02;3.65;;;19.10;99.90;;;;;;5032621;28;20082;-51
2023/07/16 05:54:27;;;;;;;10.60;3.58;;;19.10;99.90;;;;;;5031799;28;20029;-52
2023/07/16 05:56:53;;;;;;;11.07;3.83;;;19.00;99.90;;;;;;5038479;28;20545;-50
2023/07/16 05:59:18;;;;;;;10.35;4.15;;;19.00;99.90;;;;;;5038448;28;20033;-50
2023/07/16 06:01:44;;;;;;;7.88;4.10;;;19.10;99.90;;;;;;5035654;28;20053;-50
2023/07/16 06:04:10;;;;;;;13.35;4.07;;;19.20;99.90;;;;;;5033615;28;20388;-49
2023/07/16 06:06:35;;;;;;;13.10;4.43;;;19.30;99.90;;;;;;5031106;28;20345;-50
2023/07/16 06:09:01;;;;;;;10.52;4.65;;;19.30;99.90;;;;;;5037165;28;20169;-48
2023/07/16 06:11:27;;;;;;;11.40;4.00;;;19.30;99.90;;;;;;5033319;28;20037;-51
2023/07/16 06:13:55;;;;;;;10.98;4.50;;;19.40;99.90;;;;;;5032041;28;20088;-51
2023/07/16 06:16:21;;;;;;;9.73;4.32;;;19.60;99.90;;;;;;5033710;28;20025;-52
2023/07/16 06:18:46;;;;;;;11.65;4.20;;;19.60;99.90;;;;;;5031611;28;20452;-50
2023/07/16 06:21:12;;;;;;;10.93;4.10;;;19.80;99.90;;;;;;5029186;28;20041;-50
2023/07/16 06:23:38;;;;;;;11.60;4.57;;;19.80;99.90;;;;;;5037099;28;20036;-51
2023/07/16 06:26:04;;;;;;;12.70;4.45;;;19.60;99.90;;;;;;5043866;28;20154;-51
2023/07/16 06:28:29;;;;;;;11.00;4.70;;;19.70;99.90;;;;;;5037169;28;20365;-50
2023/07/16 06:30:55;;;;;;;11.30;4.38;;;19.90;99.90;;;;;;5034698;28;20038;-51
2023/07/16 06:33:21;;;;;;;11.63;4.75;;;19.90;99.90;;;;;;5035356;28;20519;-50
2023/07/16 06:35:47;;;;;;;10.85;4.80;;;19.90;99.90;;;;;;5037011;28;20047;-51
2023/07/16 06:38:14;;;;;;;15.45;4.60;;;20.00;99.90;;;;;;5039026;28;20516;-50
2023/07/16 06:40:40;;;;;;;15.98;5.00;;;20.00;99.90;;;;;;5030026;28;20389;-50
2023/07/16 06:43:05;;;;;;;11.68;4.50;;;20.20;99.90;;;;;;5037953;28;20032;-51
2023/07/16 06:45:31;;;;;;;9.95;4.57;;;20.10;99.90;;;;;;5032799;28;20041;-47
2023/07/16 06:47:56;;;;;;;6.93;4.63;;;20.10;99.90;;;;;;5039110;28;20053;-51
2023/07/16 06:50:22;;;;;;;10.35;4.70;;;20.20;99.90;;;;;;5038018;28;20135;-51
2023/07/16 06:52:47;;;;;;;13.48;5.13;;;20.40;99.90;;;;;;5036384;28;20078;-51
2023/07/16 06:55:13;;;;;;;17.08;5.10;;;20.30;99.90;;;;;;5031418;28;20037;-50
2023/07/16 06:57:39;;;;;;;13.32;5.40;;;20.40;99.90;;;;;;5034433;28;20044;-51
2023/07/16 07:00:06;;;;;;;12.18;4.55;;;20.50;99.90;;;;;;5036312;28;20116;-50
2023/07/16 07:02:32;;;;;;;11.45;5.10;;;20.30;99.90;;;;;;5035617;28;20108;-51
2023/07/16 07:04:59;;;;;;;10.60;5.07;;;20.40;99.90;;;;;;5032037;28;20032;-49
2023/07/16 07:07:24;;;;;;;12.45;4.90;;;20.40;99.90;;;;;;5030723;28;20131;-49
2023/07/16 07:09:50;;;;;;;11.10;5.10;;;20.30;99.90;;;;;;5032682;28;20490;-50
2023/07/16 07:12:15;;;;;;;11.20;4.88;;;20.40;99.90;;;;;;5032006;28;20036;-49
2023/07/16 07:14:41;;;;;;;10.20;4.72;;;20.40;99.90;;;;;;5031403;28;20029;-52
2023/07/16 07:17:07;;;;;;;13.23;5.40;;;20.40;99.90;;;;;;5033123;28;20564;-51
2023/07/16 07:19:32;;;;;;;14.35;5.32;;;20.30;99.90;;;;;;5039006;28;20043;-51
2023/07/16 07:21:58;;;;;;;10.85;5.30;;;20.50;99.90;;;;;;5031364;28;20044;-51
2023/07/16 07:24:24;;;;;;;15.07;5.63;;;20.50;99.90;;;;;;5035410;28;20224;-50
2023/07/16 07:26:49;;;;;;;11.07;5.18;;;20.50;99.90;;;;;;5030911;28;20366;-51
2023/07/16 07:29:15;;;;;;;16.60;5.38;;;20.40;99.90;;;;;;5033932;28;20045;-50
2023/07/16 07:31:41;;;;;;;11.88;5.32;;;20.60;99.90;;;;;;5031614;28;20041;-52
2023/07/16 07:34:06;;;;;;;12.88;5.30;;;20.60;99.90;;;;;;5037045;28;20711;-50
2023/07/16 07:36:32;;;;;;;15.10;5.85;;;20.70;99.90;;;;;;5031345;28;20033;-50
2023/07/16 07:38:58;;;;;;;16.13;5.57;;;20.80;99.90;;;;;;5029350;28;20053;-52
2023/07/16 07:41:23;;;;;;;12.65;5.18;;;20.80;99.90;;;;;;5030259;28;20044;-52
2023/07/16 07:43:49;;;;;;;11.75;5.20;;;20.80;99.90;;;;;;5036434;28;20392;-49
2023/07/16 07:46:14;;;;;;;13.93;5.45;;;20.90;99.90;;;;;;5031044;28;20040;-50
2023/07/16 07:48:40;;;;;;;12.48;5.80;;;20.90;99.90;;;;;;5039559;28;20555;-48
2023/07/16 07:51:05;;;;;;;11.15;5.00;;;21.10;99.90;;;;;;5037583;28;20235;-52
2023/07/16 07:53:31;;;;;;;16.02;6.13;;;21.10;99.90;;;;;;5040876;28;20087;-51
2023/07/16 07:55:57;;;;;;;12.15;5.47;;;21.10;99.90;;;;;;5032846;28;20372;-50
2023/07/16 07:58:23;;;;;;;12.07;5.93;;;21.20;99.90;;;;;;5035913;28;20037;-51
2023/07/16 08:00:48;;;;;;;13.50;5.28;;;21.30;99.90;;;;;;5033817;28;20052;-51
2023/07/16 08:03:14;;;;;;;9.45;5.05;;;21.40;99.90;;;;;;5037426;28;20483;-51
2023/07/16 08:05:40;;;;;;;9.77;5.88;;;21.40;99.90;;;;;;5035830;28;20041;-53
2023/07/16 08:08:05;;;;;;;12.05;5.45;;;21.60;99.90;;;;;;5040887;28;20492;-50
2023/07/16 08:10:31;;;;;;;11.25;5.20;;;21.60;99.90;;;;;;5039523;28;20040;-52
2023/07/16 08:12:56;;;;;;;12.75;5.13;;;21.60;99.90;;;;;;5036295;28;20590;-51
2023/07/16 08:15:22;;;;;;;10.75;5.50;;;21.60;99.90;;;;;;5039093;28;20029;-51
2023/07/16 08:17:48;;;;;;;13.27;5.43;;;21.50;99.90;;;;;;5036549;28;20044;-49
2023/07/16 08:20:13;;;;;;;10.18;5.28;;;21.40;99.90;;;;;;5038669;28;20033;-52
2023/07/16 08:22:40;;;;;;;10.98;5.38;;;21.30;99.90;;;;;;5035067;28;20485;-52
2023/07/16 08:25:06;;;;;;;13.23;5.65;;;21.50;99.90;;;;;;5033991;28;20040;-51
2023/07/16 08:27:34;;;;;;;10.35;5.50;;;21.40;99.90;;;;;;5034131;28;20037;-51
2023/07/16 08:30:00;;;;;;;12.00;5.32;;;21.50;99.90;;;;;;5033733;28;20035;-48
2023/07/16 08:32:25;;;;;;;10.77;5.28;;;21.50;99.90;;;;;;5040758;28;20116;-51
2023/07/16 08:34:51;;;;;;;10.90;5.28;;;21.60;99.90;;;;;;5035808;28;20033;-49
2023/07/16 08:37:17;;;;;;;10.25;5.38;;;21.50;99.90;;;;;;5031946;28;20029;-50
2023/07/16 08:39:42;;;;;;;10.65;4.68;;;21.50;99.90;;;;;;5032772;28;20633;-51
2023/07/16 08:42:10;;;;;;;9.55;5.32;;;21.30;99.90;;;;;;5034772;28;20025;-51
2023/07/16 08:44:38;;;;;;;9.77;4.95;;;21.30;99.90;;;;;;5036921;28;20132;-48
2023/07/16 08:47:05;;;;;;;12.40;5.15;;;21.40;99.90;;;;;;5034777;28;20041;-48
2023/07/16 08:49:33;;;;;;;11.40;5.15;;;21.50;99.90;;;;;;5036688;28;20068;-50
2023/07/16 08:52:00;;;;;;;14.60;4.85;;;21.60;99.90;;;;;;5035978;28;20037;-50
2023/07/16 08:54:26;;;;;;;11.10;4.50;;;21.70;99.90;;;;;;5028760;28;20168;-51
2023/07/16 08:56:52;;;;;;;15.18;4.70;;;21.70;99.90;;;;;;5029207;28;20625;-48
2023/07/16 08:59:18;;;;;;;9.90;4.78;;;21.70;99.90;;;;;;5034152;28;20045;-52
2023/07/16 09:01:47;;;;;;;13.25;4.90;;;21.70;99.90;;;;;;5034046;28;20079;-52
2023/07/16 09:04:13;;;;;;;10.82;4.93;;;21.70;99.90;;;;;;5036534;28;20540;-51
2023/07/16 09:06:38;;;;;;;15.25;5.72;;;21.90;99.90;;;;;;5034331;28;20037;-57
2023/07/16 09:09:04;;;;;;;10.35;5.60;;;22.10;99.90;;;;;;5030546;28;20033;-50
2023/07/16 09:11:30;;;;;;;10.73;5.15;;;22.40;99.90;;;;;;5030672;28;20029;-54
2023/07/16 09:13:55;;;;;;;10.85;5.07;;;22.60;99.90;;;;;;5037261;28;20180;-49
2023/07/16 09:16:21;;;;;;;12.18;4.95;;;22.70;99.90;;;;;;5040740;28;20139;-53
2023/07/16 09:18:47;;;;;;;11.63;4.68;;;22.60;99.90;;;;;;5036534;28;20083;-53
2023/07/16 09:21:13;;;;;;;15.23;4.75;;;22.40;99.90;;;;;;5038974;28;20479;-53
2023/07/16 09:23:39;;;;;;;12.05;4.63;;;22.50;99.90;;;;;;5032125;28;20108;-54
2023/07/16 09:26:05;;;;;;;9.50;4.40;;;22.50;99.90;;;;;;5030969;28;20030;-51
2023/07/16 09:28:31;;;;;;;11.20;4.63;;;22.60;99.90;;;;;;5036256;28;20044;-53
2023/07/16 09:31:04;;;;;;;8.48;4.40;;;22.70;99.90;;;;;;5029416;28;20099;-53
2023/07/16 09:33:31;;;;;;;9.82;4.85;;;22.50;99.90;;;;;;5032713;28;20094;-53
2023/07/16 09:35:57;;;;;;;10.40;4.57;;;22.40;99.90;;;;;;5035688;28;20040;-53
2023/07/16 09:38:26;;;;;;;11.52;5.13;;;22.40;99.90;;;;;;5036921;28;20064;-53
2023/07/16 09:40:53;;;;;;;9.25;4.63;;;22.40;99.90;;;;;;5036544;28;20068;-51
2023/07/16 09:43:20;;;;;;;8.25;4.63;;;22.40;99.90;;;;;;5037757;28;20481;-53
2023/07/16 09:45:46;;;;;;;16.30;4.50;;;22.50;99.90;;;;;;5036413;28;20084;-52
2023/07/16 09:48:14;;;;;;;7.90;4.57;;;22.40;99.90;;;;;;5031933;28;20036;-52
2023/07/16 09:50:47;;;;;;;10.63;4.65;;;22.30;99.90;;;;;;5032367;28;20030;-52
2023/07/16 09:53:15;;;;;;;8.32;4.22;;;22.40;99.90;;;;;;5031472;28;20120;-51
2023/07/16 09:55:41;;;;;;;7.00;3.92;;;22.80;99.90;;;;;;5033883;28;20040;-47
2023/07/16 09:58:11;;;;;;;7.32;3.95;;;22.90;99.90;;;;;;5029266;28;20060;-51
2023/07/16 10:00:39;;;;;;;11.95;4.40;;;22.70;99.90;;;;;;5036816;28;20128;-51
2023/07/16 10:03:07;;;;;;;10.77;4.28;;;22.80;99.90;;;;;;5039250;28;20039;-52
2023/07/16 10:05:36;;;;;;;0.00;0.00;;;22.90;99.90;;;;;;5026810;28;20040;-51
2023/07/16 10:08:02;;;;;;;0.00;0.00;;;22.90;99.90;;;;;;5030470;28;20551;-51
2023/07/16 10:10:52;;;;;;;0.00;0.00;;;22.90;99.90;;;;;;5035073;28;20352;-49
2023/07/16 10:13:17;;;;;;;0.00;0.00;;;22.90;99.90;;;;;;5031536;28;20511;-51
2023/07/16 10:15:58;;;;;;;0.00;0.00;;;23.10;99.90;;;;;;5025416;28;20033;-51
2023/07/16 10:18:27;;;;;;;0.00;0.00;;;23.10;99.90;;;;;;5037363;28;20504;-48
2023/07/16 10:20:53;;;;;;;0.00;0.00;;;23.30;99.90;;;;;;5037904;28;20048;-51
2023/07/16 10:23:19;;;;;;;0.00;0.00;;;23.20;99.90;;;;;;5033715;28;20025;-50
2023/07/16 10:26:05;;;;;;;0.00;0.00;;;23.10;99.90;;;;;;5040901;28;20029;-50
2023/07/16 10:28:31;;;;;;;0.00;0.00;;;23.10;99.90;;;;;;5033505;28;20402;-52
2023/07/16 10:30:57;;;;;;;0.00;0.00;;;23.10;99.90;;;;;;5018472;28;20065;-48
2023/07/16 10:33:23;;;;;;;0.00;0.00;;;23.30;99.90;;;;;;5033775;28;20514;-50
2023/07/16 10:35:48;;;;;;;0.00;0.00;;;23.30;99.90;;;;;;5026755;28;20098;-51
2023/07/16 10:38:14;;;;;;;0.00;0.00;;;23.20;99.90;;;;;;5024247;28;20082;-51
2023/07/16 10:40:41;;;;;;;0.00;0.00;;;23.10;99.90;;;;;;5031982;28;20211;-49
2023/07/16 10:43:07;;;;;;;0.00;0.00;;;23.10;99.90;;;;;;5037351;28;20033;-47
2023/07/16 10:45:33;;;;;;;0.00;0.00;;;23.20;99.90;;;;;;5037163;28;20040;-48
2023/07/16 10:47:59;;;;;;;0.00;0.00;;;23.40;99.90;;;;;;5043562;28;20029;-56
2023/07/16 10:50:25;;;;;;;0.00;0.00;;;23.60;99.90;;;;;;5037981;28;20342;-48
2023/07/16 10:52:55;;;;;;;0.00;0.00;;;23.50;99.90;;;;;;5035868;28;20037;-50
2023/07/16 10:55:22;;;;;;;0.00;0.00;;;23.30;99.90;;;;;;5024726;28;20553;-51
2023/07/16 10:57:51;;;;;;;0.00;0.00;;;23.30;99.90;;;;;;5037228;28;20033;-51
2023/07/16 11:00:18;;;;;;;0.00;0.00;;;23.30;99.90;;;;;;5056563;28;20033;-51
2023/07/16 11:02:44;;;;;;;0.00;0.00;;;23.50;99.90;;;;;;5042365;28;20520;-53
2023/07/16 11:05:14;;;;;;;0.00;0.00;;;23.50;99.90;;;;;;5038100;28;20033;-49
2023/07/16 11:07:46;;;;;;;0.00;0.00;;;23.30;99.90;;;;;;5039336;28;20158;-50
2023/07/16 11:10:14;;;;;;;0.00;0.00;;;23.60;99.90;;;;;;5038544;28;20518;-51
2023/07/16 11:12:42;;;;;;;0.00;0.00;;;23.60;99.90;;;;;;5040022;28;20353;-50
2023/07/16 11:15:08;;;;;;;0.00;0.00;;;23.60;99.90;;;;;;5040035;28;20944;-51
2023/07/16 11:17:34;;;;;;;0.00;0.00;;;23.40;99.90;;;;;;5036375;28;20108;-51
2023/07/16 11:20:02;;;;;;;0.00;0.00;;;23.10;99.90;;;;;;5030377;28;20191;-50
2023/07/16 11:22:27;;;;;;;0.00;0.00;;;23.10;99.90;;;;;;5036796;28;20033;-50
2023/07/16 11:24:54;;;;;;;0.00;0.00;;;23.10;99.90;;;;;;5037263;28;20035;-49
2023/07/16 11:27:27;;;;;;;0.00;0.00;;;23.10;99.90;;;;;;5040431;28;20025;-50
2023/07/16 11:29:55;;;;;;;0.00;0.00;;;23.10;99.90;;;;;;5040047;28;20148;-51
2023/07/16 11:32:45;;;;;;;0.00;0.00;;;22.90;99.90;;;;;;5040305;28;20384;-48
2023/07/16 11:35:16;;;;;;;0.00;0.00;;;23.00;99.90;;;;;;5036232;28;20037;-51
2023/07/16 11:37:42;;;;;;;0.00;0.00;;;23.40;99.90;;;;;;5033228;28;20065;-51
2023/07/16 11:40:10;;;;;;;0.00;0.00;;;23.60;99.90;;;;;;5035677;28;20071;-51
2023/07/16 11:42:39;;;;;;;0.00;0.00;;;23.50;99.90;;;;;;5039078;28;20115;-51
2023/07/16 11:45:18;;;;;;;0.00;0.00;;;23.40;99.90;;;;;;5038609;28;20055;-51
2023/07/16 11:47:45;;;;;;;0.00;0.00;;;23.50;99.90;;;;;;5039191;28;20106;-52
2023/07/16 11:50:11;;;;;;;0.00;0.00;;;23.50;99.90;;;;;;5038808;28;20087;-53
2023/07/16 11:52:38;;;;;;;0.00;0.00;;;23.50;99.90;;;;;;5036812;28;20041;-52
2023/07/16 11:55:04;;;;;;;0.00;0.00;;;23.30;99.90;;;;;;5037005;28;20463;-59
2023/07/16 11:57:30;;;;;;;0.00;0.00;;;23.20;99.90;;;;;;5030130;28;20033;-51
2023/07/16 11:59:56;;;;;;;0.00;0.00;;;23.10;99.90;;;;;;5033706;28;20039;-52
2023/07/16 12:02:22;;;;;;;0.00;0.00;;;23.20;99.90;;;;;;5035087;28;20081;-50
2023/07/16 12:04:48;;;;;;;0.00;0.00;;;23.40;99.90;;;;;;5034550;28;20473;-51
2023/07/16 12:07:14;;;;;;;0.00;0.00;;;23.50;99.90;;;;;;5034016;28;20041;-51
2023/07/16 12:09:40;;;;;;;0.00;0.00;;;23.40;99.90;;;;;;5035173;28;20437;-51
2023/07/16 12:12:06;;;;;;;0.00;0.00;;;23.30;99.90;;;;;;5030791;28;20041;-56
2023/07/16 12:14:32;;;;;;;0.00;0.00;;;23.20;99.90;;;;;;5034398;28;20033;-54
2023/07/16 12:16:58;;;;;;;0.00;0.00;;;23.20;99.90;;;;;;5036487;28;20044;-52
2023/07/16 12:19:24;;;;;;;0.00;0.00;;;23.10;99.90;;;;;;5038839;28;20033;-63
2023/07/16 12:21:50;;;;;;;0.00;0.00;;;23.20;99.90;;;;;;5033729;28;20044;-58
2023/07/16 12:24:16;;;;;;;0.00;0.00;;;23.20;99.90;;;;;;5035087;28;20037;-59
2023/07/16 12:26:42;;;;;;;0.00;0.00;;;23.20;99.90;;;;;;5027780;28;20515;-56
2023/07/16 12:29:07;;;;;;;0.00;0.00;;;23.40;99.90;;;;;;5031737;28;20037;-57
2023/07/16 12:31:33;;;;;;;0.00;0.00;;;23.30;99.90;;;;;;5034979;28;20064;-52
2023/07/16 12:34:01;;;;;;;0.00;0.00;;;23.30;99.90;;;;;;5025568;28;20034;-52
2023/07/16 12:36:27;;;;;;;0.00;0.00;;;23.30;99.90;;;;;;5027990;28;20758;-60
2023/07/16 12:38:53;;;;;;;0.00;0.00;;;23.10;99.90;;;;;;5035624;28;20033;-52